L'gov, Russia
Current Conditions -  °F | °C
As of 10:00 PM on Wednesday 26 Nov 2014 (Local Time) from UUOK Reporting Station
Clear Clear  
Wind Chill:   Ceiling: Unl
Heat Index: 14°   Visibility: 6mi
Dew Point:   Wind: 7mph
Humidity: 67%   Direction: 100°E
Pressure: 30.45"   Gusts: NA
Location:  51.65°N, 35.28°E
Report Text: UUOK 261900Z 10003MPS CAVOK M10/M15 Q1031 NOSIG RMK 12CLRD70
Loading
Personal Weather Stations






























Interactive Weather Map New forecast layout! Learn more

10-Day Weather Forecast

Advertisements
Track Severe Weather on mobile